createdAt,value
2022-10-23T00:02:17.842Z,7.65
2022-10-23T00:04:47.281Z,8.35
2022-10-23T00:07:17.033Z,7.10
2022-10-23T00:09:46.685Z,7.93
2022-10-23T00:12:17.446Z,6.47
2022-10-23T00:14:48.570Z,6.03
2022-10-23T00:17:18.315Z,6.90
2022-10-23T00:19:50.539Z,7.53
2022-10-23T00:22:23.293Z,6.60
2022-10-23T00:24:53.252Z,7.38
2022-10-23T00:27:25.273Z,6.53
2022-10-23T00:29:55.062Z,6.95
2022-10-23T00:32:24.729Z,6.25
2022-10-23T00:34:56.586Z,7.15
2022-10-23T00:37:27.103Z,8.73
2022-10-23T00:39:56.684Z,6.30
2022-10-23T00:42:27.752Z,6.50
2022-10-23T00:45:25.766Z,6.85
2022-10-23T00:47:58.586Z,7.20
2022-10-23T00:50:32.088Z,6.25
2022-10-23T00:53:05.500Z,6.60
2022-10-23T00:55:38.252Z,6.00
2022-10-23T00:58:10.720Z,7.32
2022-10-23T01:00:51.398Z,6.32
2022-10-23T01:03:27.505Z,6.05
2022-10-23T01:06:09.383Z,6.95
2022-10-23T01:08:53.198Z,6.07
2022-10-23T01:11:33.809Z,5.85
2022-10-23T01:14:18.785Z,6.15
2022-10-23T01:17:00.168Z,6.40
2022-10-23T01:19:52.969Z,7.15
2022-10-23T01:22:54.633Z,5.72
2022-10-23T01:26:00.920Z,6.43
2022-10-23T01:28:43.798Z,6.45
2022-10-23T01:31:24.270Z,6.07
2022-10-23T01:34:00.767Z,6.22
2022-10-23T01:36:33.337Z,6.20
2022-10-23T01:39:09.087Z,6.55
2022-10-23T01:41:46.691Z,6.40
2022-10-23T01:44:30.080Z,6.22
2022-10-23T01:46:59.878Z,6.82
2022-10-23T01:49:33.480Z,5.28
2022-10-23T01:52:08.633Z,6.32
2022-10-23T01:54:44.024Z,5.40
2022-10-23T01:57:19.294Z,6.82
2022-10-23T01:59:54.799Z,5.93
2022-10-23T02:02:25.981Z,6.22
2022-10-23T02:05:02.877Z,6.55
2022-10-23T02:07:32.849Z,6.72
2022-10-23T02:10:03.986Z,6.57
2022-10-23T02:12:47.758Z,6.82
2022-10-23T02:15:27.788Z,6.80
2022-10-23T02:18:10.651Z,7.68
2022-10-23T02:20:46.907Z,7.63
2022-10-23T02:23:23.558Z,8.18
2022-10-23T02:26:04.408Z,5.95
2022-10-23T02:28:41.633Z,6.05
2022-10-23T02:31:18.359Z,6.07
2022-10-23T02:33:48.827Z,4.90
2022-10-23T02:36:20.692Z,5.40
2022-10-23T02:38:50.191Z,5.00
2022-10-23T02:41:34.601Z,5.03
2022-10-23T02:44:23.458Z,4.57
2022-10-23T02:47:08.771Z,5.03
2022-10-23T02:49:46.561Z,4.10
2022-10-23T02:52:28.534Z,4.35
2022-10-23T02:55:16.083Z,4.95
2022-10-23T02:57:57.658Z,5.63
2022-10-23T03:00:29.206Z,4.85
2022-10-23T03:03:04.472Z,4.45
2022-10-23T03:05:38.924Z,5.78
2022-10-23T03:08:10.944Z,5.15
2022-10-23T03:10:41.736Z,5.30
2022-10-23T03:13:12.373Z,4.50
2022-10-23T03:15:44.529Z,6.00
2022-10-23T03:18:17.736Z,5.13
2022-10-23T03:20:50.425Z,5.40
2022-10-23T03:23:19.809Z,6.90
2022-10-23T03:25:50.706Z,5.43
2022-10-23T03:28:34.083Z,5.32
2022-10-23T03:31:04.160Z,6.10
2022-10-23T03:33:35.122Z,4.85
2022-10-23T03:36:11.513Z,5.55
2022-10-23T03:38:41.049Z,5.88
2022-10-23T03:41:10.454Z,5.53
2022-10-23T03:43:39.842Z,5.07
2022-10-23T03:46:12.581Z,5.57
2022-10-23T03:48:43.344Z,5.50
2022-10-23T03:51:13.344Z,5.13
2022-10-23T03:53:43.536Z,5.30
2022-10-23T03:56:12.930Z,5.47
2022-10-23T03:58:42.529Z,5.95
2022-10-23T04:01:12.005Z,5.18
2022-10-23T04:03:42.857Z,5.30
2022-10-23T04:06:12.356Z,4.60
2022-10-23T04:08:44.151Z,6.25
2022-10-23T04:11:18.512Z,4.68
2022-10-23T04:13:48.725Z,5.50
2022-10-23T04:16:18.208Z,4.70
2022-10-23T04:18:49.117Z,5.00
2022-10-23T04:21:18.857Z,5.20
2022-10-23T04:23:48.338Z,4.80
2022-10-23T04:26:20.164Z,5.40
2022-10-23T04:28:50.623Z,5.40
2022-10-23T04:31:20.062Z,5.15
2022-10-23T04:33:50.806Z,6.47
2022-10-23T04:36:31.377Z,4.53
2022-10-23T04:39:07.537Z,4.80
2022-10-23T04:41:38.817Z,5.13
2022-10-23T04:44:09.050Z,4.88
2022-10-23T04:46:41.728Z,5.47
2022-10-23T04:49:13.804Z,4.57
2022-10-23T04:51:50.633Z,4.20
2022-10-23T04:54:39.238Z,4.53
2022-10-23T04:57:23.955Z,4.22
2022-10-23T05:00:10.282Z,4.38
2022-10-23T05:02:50.714Z,4.13
2022-10-23T05:05:21.829Z,4.90
2022-10-23T05:08:02.979Z,4.97
2022-10-23T05:10:50.522Z,3.92
2022-10-23T05:13:21.065Z,3.88
2022-10-23T05:15:53.019Z,4.20
2022-10-23T05:18:26.921Z,4.00
2022-10-23T05:21:07.638Z,4.50
2022-10-23T05:23:39.727Z,4.15
2022-10-23T05:26:09.460Z,3.80
2022-10-23T05:28:43.389Z,5.22
2022-10-23T05:31:17.162Z,3.47
2022-10-23T05:33:52.721Z,5.13
2022-10-23T05:36:26.397Z,3.70
2022-10-23T05:39:00.252Z,3.15
2022-10-23T05:41:33.795Z,3.78
2022-10-23T05:44:06.393Z,3.28
2022-10-23T05:47:03.179Z,3.72
2022-10-23T05:50:01.628Z,4.03
2022-10-23T05:53:02.100Z,3.85
2022-10-23T05:55:39.232Z,3.70
2022-10-23T05:58:33.459Z,3.67
2022-10-23T06:01:23.275Z,4.43
2022-10-23T06:04:04.685Z,3.47
2022-10-23T06:07:21.138Z,4.70
2022-10-23T06:10:04.165Z,4.20
2022-10-23T06:15:10.355Z,4.20
2022-10-23T06:18:07.869Z,4.47
2022-10-23T06:20:41.721Z,3.88
2022-10-23T06:23:16.477Z,5.20
2022-10-23T06:26:10.872Z,5.15
2022-10-23T06:28:51.682Z,5.45
2022-10-23T06:31:29.139Z,5.70
2022-10-23T06:34:01.312Z,5.53
2022-10-23T06:36:32.643Z,5.97
2022-10-23T06:39:10.479Z,5.68
2022-10-23T06:42:08.161Z,5.93
2022-10-23T06:44:56.293Z,6.28
2022-10-23T06:47:44.809Z,5.63
2022-10-23T06:50:15.688Z,6.20
2022-10-23T06:52:47.950Z,6.50
2022-10-23T06:55:21.280Z,5.90
2022-10-23T06:57:53.168Z,6.15
2022-10-23T07:00:22.787Z,5.70
2022-10-23T07:02:54.598Z,5.38
2022-10-23T07:05:28.281Z,4.68
2022-10-23T07:07:58.827Z,6.18
2022-10-23T07:10:31.485Z,5.22
2022-10-23T07:13:04.502Z,7.18
2022-10-23T07:15:40.517Z,5.88
2022-10-23T07:18:15.194Z,5.88
2022-10-23T07:21:07.690Z,5.93
2022-10-23T07:23:37.473Z,4.10
2022-10-23T07:26:11.741Z,5.88
2022-10-23T07:28:44.573Z,5.10
2022-10-23T07:31:15.547Z,6.40
2022-10-23T07:34:13.822Z,5.28
2022-10-23T07:36:44.117Z,4.65
2022-10-23T07:39:14.013Z,4.20
2022-10-23T07:41:50.349Z,3.63
2022-10-23T07:44:24.334Z,3.78
2022-10-23T07:46:57.940Z,3.25
2022-10-23T07:49:28.149Z,3.60
2022-10-23T07:51:58.750Z,3.33
2022-10-23T07:54:35.459Z,2.50
2022-10-23T07:57:08.002Z,3.28
2022-10-23T07:59:46.544Z,2.75
2022-10-23T08:02:19.159Z,2.47
2022-10-23T08:04:51.178Z,2.08
2022-10-23T08:07:37.857Z,3.10
2022-10-23T08:10:10.102Z,2.80
2022-10-23T08:12:41.954Z,3.15
2022-10-23T08:15:13.283Z,3.63
2022-10-23T08:17:54.574Z,3.10
2022-10-23T08:20:40.767Z,3.70
2022-10-23T08:23:13.288Z,3.38
2022-10-23T08:25:42.845Z,3.03
2022-10-23T08:28:13.333Z,2.40
2022-10-23T08:30:54.610Z,2.70
2022-10-23T08:33:24.834Z,2.45
2022-10-23T08:35:54.301Z,2.38
2022-10-23T08:38:31.648Z,3.10
2022-10-23T08:41:02.729Z,2.75
2022-10-23T08:43:48.881Z,2.00
2022-10-23T08:46:35.704Z,1.73
2022-10-23T08:49:45.185Z,2.35
2022-10-23T08:52:23.270Z,2.03
2022-10-23T08:55:13.803Z,2.17
2022-10-23T08:57:53.032Z,2.25
2022-10-23T09:00:22.497Z,2.08
2022-10-23T09:02:55.255Z,1.70
2022-10-23T09:05:33.280Z,1.60
2022-10-23T09:08:35.484Z,1.77
2022-10-23T09:11:09.263Z,1.08
2022-10-23T09:14:39.865Z,1.40
2022-10-23T09:17:24.857Z,1.30
2022-10-23T09:20:11.558Z,1.20
2022-10-23T09:22:42.149Z,1.23
2022-10-23T09:25:13.061Z,1.80
2022-10-23T09:27:51.898Z,1.42
2022-10-23T09:30:35.346Z,1.15
2022-10-23T09:33:21.639Z,1.08
2022-10-23T09:36:01.326Z,1.33
2022-10-23T09:38:34.336Z,1.10
2022-10-23T09:43:38.224Z,1.30
2022-10-23T09:46:11.890Z,1.00
2022-10-23T09:48:42.188Z,0.90
2022-10-23T09:51:22.113Z,1.00
2022-10-23T09:53:56.029Z,1.38
2022-10-23T09:56:32.013Z,1.00
2022-10-23T09:59:05.908Z,1.27
2022-10-23T10:01:46.999Z,1.10
2022-10-23T10:04:40.067Z,0.95
2022-10-23T10:07:22.832Z,1.00
2022-10-23T10:09:54.368Z,1.00
2022-10-23T10:12:48.418Z,0.85
2022-10-23T10:15:27.846Z,0.90
2022-10-23T10:18:14.114Z,0.80
2022-10-23T10:21:03.553Z,1.23
2022-10-23T10:23:48.206Z,0.80
2022-10-23T10:26:37.558Z,0.98
2022-10-23T10:29:30.001Z,1.00
2022-10-23T10:32:17.983Z,1.13
2022-10-23T10:35:03.716Z,1.23
2022-10-23T10:38:08.853Z,1.02
2022-10-23T10:40:46.767Z,0.85
2022-10-23T10:43:33.390Z,1.00
2022-10-23T10:46:13.639Z,1.02
2022-10-23T10:48:50.907Z,1.10
2022-10-23T10:51:31.553Z,1.42
2022-10-23T10:54:23.004Z,1.20
2022-10-23T10:56:54.799Z,1.08
2022-10-23T10:59:30.456Z,0.80
2022-10-23T11:02:16.628Z,1.10
2022-10-23T11:04:53.263Z,1.50
2022-10-23T11:07:28.840Z,0.98
2022-10-23T11:10:01.541Z,1.25
2022-10-23T11:12:32.627Z,1.42
2022-10-23T11:15:02.069Z,1.95
2022-10-23T11:17:39.750Z,1.05
2022-10-23T11:20:35.408Z,0.90
2022-10-23T11:23:32.623Z,1.08
2022-10-23T11:26:21.246Z,0.90
2022-10-23T11:29:20.121Z,1.00
2022-10-23T11:32:11.054Z,0.90
2022-10-23T11:35:15.874Z,1.33
2022-10-23T11:37:45.611Z,1.15
2022-10-23T11:40:25.071Z,1.42
2022-10-23T11:42:54.709Z,0.98
2022-10-23T11:45:38.930Z,0.60
2022-10-23T11:48:36.592Z,1.63
2022-10-23T11:51:25.601Z,1.45
2022-10-23T11:54:06.401Z,1.00
2022-10-23T11:56:35.918Z,0.80
2022-10-23T11:59:26.824Z,0.80
2022-10-23T12:02:01.597Z,1.00
2022-10-23T12:04:46.336Z,1.02
2022-10-23T12:07:24.685Z,0.63
2022-10-23T12:09:59.236Z,0.85
2022-10-23T12:12:35.155Z,0.70
2022-10-23T12:15:26.182Z,1.02
2022-10-23T12:18:09.898Z,0.75
2022-10-23T12:20:48.276Z,1.20
2022-10-23T12:23:50.882Z,0.85
2022-10-23T12:27:02.954Z,0.70
2022-10-23T12:30:13.136Z,0.80
2022-10-23T12:33:12.696Z,0.80
2022-10-23T12:36:25.748Z,0.90
2022-10-23T12:38:58.468Z,1.10
2022-10-23T12:44:03.165Z,0.90
2022-10-23T12:46:35.998Z,0.77
2022-10-23T12:49:18.909Z,0.98
2022-10-23T12:52:00.897Z,1.27
2022-10-23T12:54:33.923Z,1.30
2022-10-23T12:57:03.375Z,1.33
2022-10-23T12:59:39.486Z,1.35
2022-10-23T13:02:24.828Z,1.60
2022-10-23T13:04:59.585Z,1.45
2022-10-23T13:07:33.329Z,1.40
2022-10-23T13:10:06.475Z,1.33
2022-10-23T13:15:21.076Z,1.35
2022-10-23T13:18:03.797Z,1.02
2022-10-23T13:23:18.504Z,1.42
2022-10-23T13:25:55.884Z,1.20
2022-10-23T13:28:28.934Z,0.93
2022-10-23T13:31:25.704Z,1.10
2022-10-23T13:34:17.622Z,1.20
2022-10-23T13:37:03.417Z,1.13
2022-10-23T13:39:35.478Z,1.15
2022-10-23T13:42:15.026Z,1.38
2022-10-23T13:44:44.609Z,1.08
2022-10-23T13:47:15.710Z,1.33
2022-10-23T13:49:45.141Z,0.90
2022-10-23T13:52:23.386Z,1.27
2022-10-23T13:54:52.795Z,1.40
2022-10-23T13:57:22.193Z,1.42
2022-10-23T13:59:51.969Z,0.90
2022-10-23T14:02:24.959Z,1.20
2022-10-23T14:04:54.457Z,1.52
2022-10-23T14:07:25.276Z,1.27
2022-10-23T14:09:54.703Z,1.02
2022-10-23T14:12:24.204Z,1.10
2022-10-23T14:14:54.416Z,1.20
2022-10-23T14:17:23.830Z,1.20
2022-10-23T14:19:53.202Z,1.30
2022-10-23T14:22:24.105Z,1.15
2022-10-23T14:24:53.505Z,1.10
2022-10-23T14:27:22.889Z,1.33
2022-10-23T14:29:52.849Z,1.60
2022-10-23T14:32:22.248Z,1.10
2022-10-23T14:34:54.745Z,1.33
2022-10-23T14:39:54.769Z,1.38
2022-10-23T14:42:24.466Z,1.52
2022-10-23T14:44:54.113Z,1.80
2022-10-23T14:47:23.877Z,2.08
2022-10-23T14:49:54.491Z,2.10
2022-10-23T14:52:48.285Z,2.13
2022-10-23T14:55:17.747Z,2.17
2022-10-23T14:57:50.229Z,1.90
2022-10-23T15:00:20.273Z,1.55
2022-10-23T15:02:49.634Z,1.52
2022-10-23T15:05:19.292Z,2.53
2022-10-23T15:07:50.105Z,1.98
2022-10-23T15:10:19.716Z,2.05
2022-10-23T15:12:49.560Z,2.05
2022-10-23T15:15:19.185Z,2.78
2022-10-23T15:17:48.614Z,2.10
2022-10-23T15:20:18.278Z,1.60
2022-10-23T15:22:49.229Z,1.70
2022-10-23T15:25:18.918Z,2.30
2022-10-23T15:27:48.391Z,2.25
2022-10-23T15:30:18.609Z,1.80
2022-10-23T15:32:48.171Z,1.75
2022-10-23T15:35:18.003Z,1.77
2022-10-23T15:37:48.829Z,3.30
2022-10-23T15:40:18.524Z,10.90
2022-10-23T15:42:51.630Z,8.95
2022-10-23T15:45:21.277Z,12.63
2022-10-23T15:47:51.288Z,11.43
2022-10-23T15:50:20.709Z,7.93
2022-10-23T15:52:53.252Z,9.30
2022-10-23T15:55:22.703Z,11.25
2022-10-23T15:57:52.087Z,7.97
2022-10-23T16:00:21.997Z,5.32
2022-10-23T16:02:51.982Z,4.82
2022-10-23T16:05:21.423Z,4.88
2022-10-23T16:07:52.155Z,5.25
2022-10-23T16:10:21.517Z,5.68
2022-10-23T16:12:51.175Z,4.75
2022-10-23T16:15:20.810Z,5.78
2022-10-23T16:17:50.349Z,6.35
2022-10-23T16:20:21.005Z,4.72
2022-10-23T16:22:51.723Z,4.47
2022-10-23T16:25:24.072Z,4.32
2022-10-23T16:27:53.756Z,5.18
2022-10-23T16:30:24.130Z,4.93
2022-10-23T16:32:54.844Z,4.78
2022-10-23T16:35:24.847Z,4.47
2022-10-23T16:38:08.104Z,5.40
2022-10-23T16:40:37.648Z,6.50
2022-10-23T16:43:42.397Z,6.13
2022-10-23T16:46:30.159Z,6.25
2022-10-23T16:48:59.673Z,9.05
2022-10-23T16:51:30.312Z,7.85
2022-10-23T16:54:01.393Z,7.72
2022-10-23T16:56:32.102Z,9.70
2022-10-23T16:59:01.578Z,8.98
2022-10-23T17:01:33.550Z,15.30
2022-10-23T17:04:03.164Z,10.60
2022-10-23T17:06:34.240Z,10.30
2022-10-23T17:09:07.007Z,8.45
2022-10-23T17:11:40.794Z,9.20
2022-10-23T17:14:16.096Z,12.15
2022-10-23T17:16:49.290Z,12.27
2022-10-23T17:19:43.632Z,13.43
2022-10-23T17:22:13.626Z,12.20
2022-10-23T17:24:47.657Z,11.73
2022-10-23T17:27:20.068Z,10.55
2022-10-23T17:29:49.501Z,8.50
2022-10-23T17:32:18.948Z,9.98
2022-10-23T17:34:48.473Z,10.32
2022-10-23T17:37:17.978Z,12.77
2022-10-23T17:39:48.832Z,14.65
2022-10-23T17:42:18.473Z,15.05
2022-10-23T17:44:48.069Z,14.70
2022-10-23T17:47:17.510Z,16.58
2022-10-23T17:49:47.136Z,17.65
2022-10-23T17:52:16.691Z,10.75
2022-10-23T17:54:46.061Z,6.95
2022-10-23T17:57:16.873Z,7.30
2022-10-23T17:59:46.278Z,6.70
2022-10-23T18:02:15.806Z,6.72
2022-10-23T18:04:45.269Z,7.43
2022-10-23T18:07:14.664Z,8.88
2022-10-23T18:09:44.121Z,7.82
2022-10-23T18:12:13.629Z,8.50
2022-10-23T18:14:44.398Z,9.23
2022-10-23T18:17:13.769Z,10.82
2022-10-23T18:19:43.140Z,11.13
2022-10-23T18:22:12.612Z,10.30
2022-10-23T18:24:42.134Z,8.98
2022-10-23T18:27:11.535Z,10.90
2022-10-23T18:29:43.361Z,10.95
2022-10-23T18:32:14.104Z,11.13
2022-10-23T18:34:43.491Z,10.38
2022-10-23T18:37:12.908Z,9.18
2022-10-23T18:39:42.364Z,9.52
2022-10-23T18:42:11.762Z,9.75
2022-10-23T18:44:46.832Z,9.15
2022-10-23T18:47:17.909Z,8.05
2022-10-23T18:49:47.351Z,7.45
2022-10-23T18:52:16.730Z,8.60
2022-10-23T18:54:46.100Z,9.60
2022-10-23T18:57:15.526Z,9.27
2022-10-23T18:59:44.885Z,10.27
2022-10-23T19:02:14.344Z,9.25
2022-10-23T19:04:45.154Z,10.55
2022-10-23T19:07:14.754Z,8.73
2022-10-23T19:09:44.173Z,11.38
2022-10-23T19:14:48.209Z,8.25
2022-10-23T19:17:22.386Z,8.20
2022-10-23T19:19:58.205Z,8.55
2022-10-23T19:22:30.237Z,9.82
2022-10-23T19:25:10.192Z,9.98
2022-10-23T19:27:40.841Z,9.77
2022-10-23T19:30:13.771Z,10.80
2022-10-23T19:35:19.220Z,9.88
2022-10-23T19:37:48.924Z,9.63
2022-10-23T19:40:18.604Z,10.95
2022-10-23T19:42:48.101Z,10.63
2022-10-23T19:45:17.817Z,9.93
2022-10-23T19:47:47.821Z,10.93
2022-10-23T19:50:18.723Z,11.57
2022-10-23T19:52:48.224Z,11.02
2022-10-23T19:55:17.884Z,10.90
2022-10-23T19:57:47.269Z,10.77
2022-10-23T20:00:17.574Z,10.95
2022-10-23T20:02:49.076Z,11.77
2022-10-23T20:05:22.524Z,12.95
2022-10-23T20:07:52.525Z,14.30
2022-10-23T20:10:22.170Z,13.10
2022-10-23T20:12:56.717Z,13.10
2022-10-23T20:15:26.401Z,11.55
2022-10-23T20:17:55.771Z,12.40
2022-10-23T20:20:26.504Z,11.85
2022-10-23T20:22:56.663Z,12.50
2022-10-23T20:25:27.741Z,11.43
2022-10-23T20:27:57.118Z,13.65
2022-10-23T20:30:26.538Z,11.23
2022-10-23T20:32:56.793Z,9.77
2022-10-23T20:35:27.669Z,7.15
2022-10-23T20:37:57.044Z,7.70
2022-10-23T20:40:26.448Z,6.30
2022-10-23T20:42:55.828Z,5.93
2022-10-23T20:45:25.361Z,5.07
2022-10-23T20:47:54.744Z,5.28
2022-10-23T20:50:24.800Z,5.05
2022-10-23T20:52:55.550Z,4.28
2022-10-23T20:55:24.942Z,4.80
2022-10-23T20:57:55.017Z,4.07
2022-10-23T21:00:24.428Z,3.85
2022-10-23T21:02:54.007Z,4.60
2022-10-23T21:05:23.752Z,4.15
2022-10-23T21:07:53.121Z,4.22
2022-10-23T21:10:23.850Z,3.75
2022-10-23T21:12:53.256Z,3.97
2022-10-23T21:15:22.811Z,4.40
2022-10-23T21:17:52.332Z,5.65
2022-10-23T21:20:21.734Z,4.47
2022-10-23T21:22:55.359Z,4.10
2022-10-23T21:25:26.212Z,4.18
2022-10-23T21:27:55.584Z,3.92
2022-10-23T21:30:25.027Z,4.22
2022-10-23T21:32:54.485Z,4.22
2022-10-23T21:35:25.412Z,3.95
2022-10-23T21:37:57.547Z,4.05
2022-10-23T21:40:28.389Z,4.88
2022-10-23T21:42:57.855Z,4.22
2022-10-23T21:45:27.361Z,3.67
2022-10-23T21:47:56.875Z,4.63
2022-10-23T21:50:26.278Z,3.95
2022-10-23T21:52:56.929Z,3.97
2022-10-23T21:55:29.717Z,3.70
2022-10-23T21:57:59.245Z,3.78
2022-10-23T22:00:28.690Z,3.65
2022-10-23T22:02:58.054Z,3.78
2022-10-23T22:05:27.498Z,3.83
2022-10-23T22:07:56.995Z,3.70
2022-10-23T22:10:27.813Z,3.60
2022-10-23T22:12:57.256Z,4.22
2022-10-23T22:15:26.600Z,3.58
2022-10-23T22:17:56.177Z,3.75
2022-10-23T22:20:25.693Z,3.38
2022-10-23T22:22:55.116Z,3.20
2022-10-23T22:25:24.520Z,3.90
2022-10-23T22:27:55.253Z,3.40
2022-10-23T22:30:24.637Z,3.67
2022-10-23T22:32:53.997Z,3.17
2022-10-23T22:35:23.441Z,3.70
2022-10-23T22:37:52.849Z,2.80
2022-10-23T22:40:22.180Z,3.42
2022-10-23T22:42:51.580Z,3.80
2022-10-23T22:45:22.320Z,3.92
2022-10-23T22:47:51.685Z,4.70
2022-10-23T22:50:21.052Z,3.80
2022-10-23T22:52:50.525Z,3.40
2022-10-23T22:55:20.023Z,3.83
2022-10-23T22:57:49.405Z,4.10
2022-10-23T23:00:20.908Z,3.30
2022-10-23T23:02:50.391Z,3.47
2022-10-23T23:05:20.084Z,2.70
2022-10-23T23:07:49.625Z,4.47
2022-10-23T23:10:19.105Z,2.92
2022-10-23T23:12:51.121Z,2.95
2022-10-23T23:15:21.866Z,4.90
2022-10-23T23:17:51.188Z,2.25
2022-10-23T23:20:20.741Z,2.72
2022-10-23T23:22:50.125Z,1.88
2022-10-23T23:25:19.681Z,2.72
2022-10-23T23:27:49.095Z,2.63
2022-10-23T23:30:18.765Z,2.75
2022-10-23T23:32:52.610Z,2.97
2022-10-23T23:35:22.440Z,2.55
2022-10-23T23:37:52.077Z,2.42
2022-10-23T23:40:21.448Z,1.92
2022-10-23T23:42:50.848Z,2.33
2022-10-23T23:45:20.674Z,2.25
2022-10-23T23:47:51.468Z,2.55
2022-10-23T23:50:21.284Z,2.10
2022-10-23T23:52:50.652Z,2.10
2022-10-23T23:55:20.381Z,2.70
2022-10-23T23:57:49.741Z,2.78
